Time;durP1;ratioP1;P1;durP2;ratioP2;P2;SDS_P1;SDS_P2;PMS_P1;PMS_P2;Temp;Humidity;BMP_temperature;BMP_pressure;BME280_temperature;BME280_humidity;BME280_pressure;Samples;Min_cycle;Max_cycle;Signal;HPM_P1;HPM_P2
2021/06/02 00:00:15;;;;;;;2.95;1.80;;;20.10;56.00;;;;;;4936610;29;20038;-78
2021/06/02 00:02:49;;;;;;;3.55;2.00;;;20.10;56.20;;;;;;4939508;29;20059;-76
2021/06/02 00:05:17;;;;;;;4.25;2.47;;;20.10;56.30;;;;;;4957334;29;20073;-76
2021/06/02 00:07:45;;;;;;;5.60;2.50;;;20.00;56.30;;;;;;4956661;29;20030;-76
2021/06/02 00:10:13;;;;;;;5.45;2.25;;;20.00;56.40;;;;;;4957112;29;20049;-76
2021/06/02 00:12:38;;;;;;;5.60;2.47;;;20.00;56.30;;;;;;4956459;29;20035;-77
2021/06/02 00:15:06;;;;;;;3.53;2.47;;;20.00;56.20;;;;;;4957005;29;20083;-77
2021/06/02 00:17:33;;;;;;;3.83;2.33;;;20.00;56.40;;;;;;4939253;29;20042;-76
2021/06/02 00:19:58;;;;;;;4.97;2.58;;;20.00;56.40;;;;;;4940059;29;20138;-76
2021/06/02 00:22:24;;;;;;;4.40;2.60;;;20.00;56.50;;;;;;4956717;29;20159;-76
2021/06/02 00:24:50;;;;;;;3.83;2.67;;;19.90;56.60;;;;;;4939247;29;20457;-77
2021/06/02 00:27:18;;;;;;;4.82;2.40;;;19.90;56.50;;;;;;4940789;28;20058;-78
2021/06/02 00:29:45;;;;;;;4.90;2.58;;;19.90;56.20;;;;;;4975855;28;20042;-77
2021/06/02 00:32:12;;;;;;;4.93;3.05;;;19.80;56.30;;;;;;4959815;28;20031;-76
2021/06/02 00:34:38;;;;;;;4.07;2.35;;;19.80;56.40;;;;;;4981069;28;20060;-78
2021/06/02 00:37:06;;;;;;;4.55;2.65;;;19.80;56.80;;;;;;4958983;28;20066;-75
2021/06/02 00:39:32;;;;;;;6.53;2.70;;;19.80;57.00;;;;;;4958107;28;20078;-78
2021/06/02 00:41:59;;;;;;;6.60;2.75;;;19.70;57.10;;;;;;4958590;28;20074;-77
2021/06/02 00:44:25;;;;;;;4.45;2.70;;;19.70;57.00;;;;;;4975917;28;20031;-78
2021/06/02 00:46:52;;;;;;;5.75;2.72;;;19.60;57.00;;;;;;4957901;28;20353;-78
2021/06/02 00:49:23;;;;;;;5.93;3.10;;;19.60;57.20;;;;;;4958486;28;20444;-76
2021/06/02 00:51:58;;;;;;;5.43;2.90;;;19.60;57.70;;;;;;4975587;28;20030;-78
2021/06/02 00:54:25;;;;;;;6.20;3.08;;;19.60;58.30;;;;;;4975854;28;20034;-77
2021/06/02 00:56:59;;;;;;;4.88;2.63;;;19.50;58.20;;;;;;4975286;28;20030;-77
2021/06/02 00:59:39;;;;;;;8.30;2.92;;;19.50;58.40;;;;;;4975884;28;20464;-77
2021/06/02 01:02:17;;;;;;;6.72;2.67;;;19.50;58.70;;;;;;4975664;28;20027;-77
2021/06/02 01:04:44;;;;;;;6.38;2.97;;;19.40;59.00;;;;;;4975076;28;20027;-77
2021/06/02 01:07:11;;;;;;;9.38;3.42;;;19.40;59.20;;;;;;4975542;28;20475;-78
2021/06/02 01:09:45;;;;;;;5.07;2.72;;;19.40;59.40;;;;;;4957407;28;20031;-77
2021/06/02 01:12:18;;;;;;;7.75;3.40;;;19.40;59.40;;;;;;4975236;28;20027;-77
2021/06/02 01:14:45;;;;;;;5.72;3.30;;;19.40;59.60;;;;;;4957386;28;20023;-78
2021/06/02 01:17:15;;;;;;;6.78;3.22;;;19.30;59.70;;;;;;4975027;28;20027;-77
2021/06/02 01:19:41;;;;;;;5.28;3.00;;;19.30;59.80;;;;;;4974590;28;20081;-77
2021/06/02 01:22:07;;;;;;;7.22;3.13;;;19.30;59.80;;;;;;4957972;28;20446;-75
2021/06/02 01:24:33;;;;;;;6.85;3.20;;;19.30;59.90;;;;;;4957813;28;20034;-76
2021/06/02 01:27:01;;;;;;;6.95;3.25;;;19.20;60.60;;;;;;4956845;28;20019;-77
2021/06/02 01:29:28;;;;;;;6.65;3.05;;;19.20;60.20;;;;;;4959893;28;20063;-76
2021/06/02 01:32:32;;;;;;;8.50;3.83;;;19.20;60.50;;;;;;4937853;29;20038;-77
2021/06/02 01:35:14;;;;;;;7.93;4.15;;;19.20;60.70;;;;;;4937771;29;20027;-77
2021/06/02 01:38:09;;;;;;;10.27;4.00;;;19.20;60.90;;;;;;4937581;29;20038;-75
2021/06/02 01:41:12;;;;;;;7.75;3.95;;;19.20;61.00;;;;;;4955611;29;20042;-77
2021/06/02 01:44:09;;;;;;;7.57;3.80;;;19.10;61.00;;;;;;4937739;29;20034;-78
2021/06/02 01:47:16;;;;;;;6.93;3.45;;;19.10;61.30;;;;;;4938260;29;20031;-76
2021/06/02 01:50:35;;;;;;;8.07;4.03;;;19.10;61.70;;;;;;4953645;29;20023;-77
2021/06/02 01:53:38;;;;;;;8.00;4.18;;;19.10;61.80;;;;;;4877074;29;20498;-77
2021/06/02 01:56:38;;;;;;;9.45;3.88;;;19.10;62.10;;;;;;4955388;29;20031;-77
2021/06/02 01:59:04;;;;;;;7.57;3.17;;;19.10;62.50;;;;;;4955337;29;20106;-77
2021/06/02 02:02:08;;;;;;;8.23;3.80;;;19.10;62.50;;;;;;4955244;29;20063;-76
2021/06/02 02:05:09;;;;;;;7.75;4.10;;;19.10;63.00;;;;;;4937933;29;20022;-77
2021/06/02 02:08:01;;;;;;;8.30;3.65;;;19.10;62.90;;;;;;4937893;29;20019;-77
2021/06/02 02:10:48;;;;;;;8.13;3.83;;;19.10;63.10;;;;;;4937831;29;20386;-76
2021/06/02 02:13:51;;;;;;;7.68;4.05;;;19.10;63.40;;;;;;4937872;29;20380;-78
2021/06/02 02:16:35;;;;;;;7.40;3.83;;;19.10;63.50;;;;;;4955012;29;20081;-77
2021/06/02 02:19:10;;;;;;;6.93;3.97;;;19.10;63.70;;;;;;4954315;29;20436;-77
2021/06/02 02:21:57;;;;;;;9.30;3.88;;;19.00;63.70;;;;;;4954658;29;20023;-76
2021/06/02 02:24:37;;;;;;;7.65;3.95;;;19.10;64.10;;;;;;4954431;28;20471;-76
2021/06/02 02:27:06;;;;;;;7.38;3.85;;;19.00;64.10;;;;;;4954146;29;20031;-76
2021/06/02 02:29:54;;;;;;;7.95;4.18;;;19.00;64.30;;;;;;4954196;28;20051;-77
2021/06/02 02:32:34;;;;;;;7.18;4.07;;;19.00;64.40;;;;;;4937405;29;20456;-76
2021/06/02 02:35:24;;;;;;;8.63;3.70;;;19.00;64.80;;;;;;4954174;29;20035;-77
2021/06/02 02:37:50;;;;;;;7.57;3.78;;;19.00;65.10;;;;;;4936876;29;20068;-77
2021/06/02 02:40:38;;;;;;;8.02;4.22;;;18.90;65.10;;;;;;4937345;29;20063;-77
2021/06/02 02:43:30;;;;;;;7.10;4.10;;;18.90;65.50;;;;;;4954124;29;20495;-76
2021/06/02 02:46:17;;;;;;;6.45;3.85;;;18.90;65.60;;;;;;4953679;29;20110;-78
2021/06/02 02:48:50;;;;;;;7.88;4.45;;;18.90;65.60;;;;;;4953414;29;20024;-77
2021/06/02 02:51:34;;;;;;;7.93;4.00;;;18.90;65.70;;;;;;4954332;29;20058;-77
2021/06/02 02:54:21;;;;;;;8.00;3.75;;;18.80;66.20;;;;;;4936603;29;20031;-77
2021/06/02 02:57:11;;;;;;;7.20;4.00;;;18.80;66.20;;;;;;4952289;29;20037;-76
2021/06/02 02:59:47;;;;;;;6.25;3.58;;;18.70;66.50;;;;;;4954053;29;20039;-75
2021/06/02 03:02:18;;;;;;;9.23;4.43;;;18.70;66.80;;;;;;4952868;29;20015;-77
2021/06/02 03:04:53;;;;;;;7.68;4.40;;;18.70;67.10;;;;;;4953775;29;20026;-76
2021/06/02 03:07:21;;;;;;;8.07;4.30;;;18.60;67.40;;;;;;4954293;29;20027;-77
2021/06/02 03:10:06;;;;;;;7.45;4.32;;;18.60;67.20;;;;;;4953527;29;20387;-77
2021/06/02 03:12:58;;;;;;;6.55;3.72;;;18.60;67.40;;;;;;4954194;29;20023;-77
2021/06/02 03:15:29;;;;;;;7.43;4.10;;;18.60;67.40;;;;;;4954179;29;20094;-77
2021/06/02 03:18:06;;;;;;;7.70;3.92;;;18.50;67.50;;;;;;4936299;29;20423;-76
2021/06/02 03:20:40;;;;;;;8.40;4.15;;;18.50;67.70;;;;;;4937035;29;20034;-76
2021/06/02 03:23:27;;;;;;;8.00;4.07;;;18.50;67.90;;;;;;4948330;29;20100;-75
2021/06/02 03:26:05;;;;;;;7.25;4.43;;;18.50;68.10;;;;;;4943843;29;20083;-75
2021/06/02 03:28:35;;;;;;;10.82;4.45;;;18.40;68.00;;;;;;4952848;28;20154;-74
2021/06/02 03:31:21;;;;;;;9.48;4.57;;;18.40;68.20;;;;;;4963995;28;20105;-75
2021/06/02 03:34:05;;;;;;;7.40;4.10;;;18.40;68.30;;;;;;4946623;28;20114;-74
2021/06/02 03:36:50;;;;;;;7.88;4.00;;;18.40;68.40;;;;;;4950381;28;20102;-74
2021/06/02 03:39:47;;;;;;;7.25;3.92;;;18.40;68.30;;;;;;4962798;28;20031;-75
2021/06/02 03:42:34;;;;;;;8.50;4.38;;;18.40;68.30;;;;;;4953298;29;20032;-74
2021/06/02 03:45:21;;;;;;;9.45;4.40;;;18.40;68.60;;;;;;4956775;29;20462;-75
2021/06/02 03:48:14;;;;;;;7.57;4.15;;;18.40;68.60;;;;;;4956754;29;20039;-76
2021/06/02 03:51:01;;;;;;;8.13;4.88;;;18.40;68.60;;;;;;4959887;28;20050;-74
2021/06/02 03:53:42;;;;;;;9.32;4.65;;;18.40;69.00;;;;;;4957488;29;20027;-73
2021/06/02 03:56:41;;;;;;;8.93;4.20;;;18.40;69.20;;;;;;4939683;29;20027;-77
2021/06/02 03:59:27;;;;;;;7.85;4.55;;;18.40;69.10;;;;;;4956583;29;20747;-80
2021/06/02 04:01:57;;;;;;;9.07;4.43;;;18.40;69.10;;;;;;4954363;29;20054;-79
2021/06/02 04:04:49;;;;;;;8.13;4.47;;;18.40;69.10;;;;;;4937883;29;20027;-76
2021/06/02 04:07:46;;;;;;;8.90;4.63;;;18.40;69.10;;;;;;4937786;29;20118;-77
2021/06/02 04:10:13;;;;;;;8.48;4.55;;;18.40;69.20;;;;;;4956763;29;20388;-77
2021/06/02 04:12:50;;;;;;;8.02;4.70;;;18.30;69.30;;;;;;4950281;28;20349;-77
2021/06/02 04:15:16;;;;;;;10.05;4.82;;;18.30;69.40;;;;;;4976430;28;20045;-77
2021/06/02 04:17:49;;;;;;;7.35;4.32;;;18.30;69.50;;;;;;4976508;28;20030;-74
2021/06/02 04:20:16;;;;;;;9.68;4.50;;;18.30;69.80;;;;;;4958253;28;20027;-78
2021/06/02 04:22:46;;;;;;;9.20;4.78;;;18.30;69.80;;;;;;4976107;28;20099;-76
2021/06/02 04:25:14;;;;;;;13.20;6.70;;;18.30;70.00;;;;;;4974852;28;20033;-77
2021/06/02 04:27:40;;;;;;;9.20;5.55;;;18.30;70.20;;;;;;4975362;28;20027;-77
2021/06/02 04:30:07;;;;;;;10.07;4.97;;;18.30;70.30;;;;;;4956352;29;20496;-78
2021/06/02 04:32:43;;;;;;;9.52;5.30;;;18.30;70.60;;;;;;4957375;29;20050;-77
2021/06/02 04:35:17;;;;;;;10.18;4.75;;;18.30;70.80;;;;;;4939485;29;20785;-78
2021/06/02 04:37:45;;;;;;;10.02;4.78;;;18.30;70.80;;;;;;4957798;29;20027;-79
2021/06/02 04:40:12;;;;;;;9.63;5.53;;;18.30;70.90;;;;;;4938905;29;20142;-77
2021/06/02 04:42:40;;;;;;;9.00;4.85;;;18.20;70.90;;;;;;4956766;29;20027;-78
2021/06/02 04:45:12;;;;;;;8.43;4.72;;;18.30;71.00;;;;;;4938861;29;20031;-78
2021/06/02 04:47:41;;;;;;;9.25;4.93;;;18.20;71.20;;;;;;4956537;28;20097;-78
2021/06/02 04:50:19;;;;;;;7.50;4.65;;;18.30;71.40;;;;;;4956625;29;20034;-77
2021/06/02 04:53:11;;;;;;;11.50;4.95;;;18.30;71.60;;;;;;4939073;29;20116;-78
2021/06/02 04:56:27;;;;;;;10.98;4.95;;;18.30;71.50;;;;;;4957007;29;20035;-78
2021/06/02 04:59:32;;;;;;;8.05;4.07;;;18.30;71.60;;;;;;4923180;29;20039;-79
2021/06/02 05:02:40;;;;;;;8.50;4.88;;;18.30;71.50;;;;;;4955750;29;20035;-78
2021/06/02 05:05:30;;;;;;;9.15;4.93;;;18.30;71.70;;;;;;4938339;29;20387;-78
2021/06/02 05:08:14;;;;;;;8.63;4.72;;;18.20;71.60;;;;;;4955794;29;20420;-78
2021/06/02 05:10:55;;;;;;;10.35;5.18;;;18.30;71.60;;;;;;4939160;29;20083;-78
2021/06/02 05:13:59;;;;;;;9.65;4.78;;;18.20;71.40;;;;;;4938989;29;20034;-77
2021/06/02 05:16:49;;;;;;;10.60;5.10;;;18.30;71.20;;;;;;4944947;29;20099;-78
2021/06/02 05:19:23;;;;;;;8.55;4.30;;;18.30;71.00;;;;;;4938272;29;20027;-76
2021/06/02 05:22:22;;;;;;;10.15;5.00;;;18.30;71.10;;;;;;4938617;29;20027;-78
2021/06/02 05:25:07;;;;;;;10.85;4.93;;;18.30;71.70;;;;;;4955672;29;20023;-77
2021/06/02 05:28:02;;;;;;;7.70;4.70;;;18.30;70.80;;;;;;4955926;29;20027;-78
2021/06/02 05:30:37;;;;;;;10.30;4.82;;;18.30;70.70;;;;;;4905268;28;20525;-77
2021/06/02 05:33:21;;;;;;;7.75;4.43;;;18.40;71.00;;;;;;4974416;28;20113;-78
2021/06/02 05:36:11;;;;;;;8.38;4.32;;;18.30;71.20;;;;;;4975165;28;20030;-78
2021/06/02 05:39:04;;;;;;;8.48;4.60;;;18.40;71.20;;;;;;4957779;28;20023;-78
2021/06/02 05:41:54;;;;;;;9.80;4.60;;;18.40;71.40;;;;;;4974835;28;20531;-77
2021/06/02 05:44:51;;;;;;;9.95;5.55;;;18.40;71.70;;;;;;4974888;28;20027;-76
2021/06/02 05:47:42;;;;;;;12.40;5.65;;;18.50;71.30;;;;;;4974653;28;20085;-77
2021/06/02 05:50:29;;;;;;;10.65;5.53;;;18.50;71.40;;;;;;4956970;28;20177;-77
2021/06/02 05:53:23;;;;;;;9.32;5.10;;;18.50;71.30;;;;;;4974878;28;20035;-77
2021/06/02 05:56:10;;;;;;;9.68;5.03;;;18.60;71.30;;;;;;4957374;28;20027;-78
2021/06/02 05:58:48;;;;;;;11.48;4.78;;;18.50;71.00;;;;;;4956267;28;20480;-78
2021/06/02 06:01:46;;;;;;;9.73;5.22;;;18.60;71.00;;;;;;4973843;28;20463;-77
2021/06/02 06:04:17;;;;;;;9.27;5.10;;;18.60;71.00;;;;;;4956912;28;20027;-77
2021/06/02 06:06:58;;;;;;;11.30;4.65;;;18.60;71.20;;;;;;4957650;28;20059;-78
2021/06/02 06:09:54;;;;;;;16.43;5.00;;;18.70;71.30;;;;;;4974447;28;20027;-78
2021/06/02 06:12:55;;;;;;;9.80;4.53;;;18.70;71.30;;;;;;4973931;28;20309;-77
2021/06/02 06:15:46;;;;;;;9.23;5.25;;;18.70;71.50;;;;;;4934026;28;20046;-79
2021/06/02 06:18:26;;;;;;;9.57;5.23;;;18.70;71.20;;;;;;4973771;28;20062;-77
2021/06/02 06:21:40;;;;;;;10.85;4.90;;;18.70;71.00;;;;;;4956861;28;20041;-77
2021/06/02 06:24:10;;;;;;;13.85;5.05;;;18.80;70.70;;;;;;4956368;28;20046;-78
2021/06/02 06:26:42;;;;;;;9.75;4.57;;;18.80;70.90;;;;;;4956929;28;20384;-78
2021/06/02 06:29:23;;;;;;;10.57;5.38;;;18.80;71.00;;;;;;4965817;28;20073;-78
2021/06/02 06:31:53;;;;;;;9.68;5.15;;;18.80;71.20;;;;;;4960892;29;20046;-78
2021/06/02 06:34:23;;;;;;;11.77;5.22;;;18.80;71.10;;;;;;4942454;29;20464;-78
2021/06/02 06:36:52;;;;;;;9.93;5.22;;;18.90;71.20;;;;;;4954774;29;20075;-78
2021/06/02 06:39:44;;;;;;;7.60;4.63;;;18.90;70.90;;;;;;4936724;29;20391;-78
2021/06/02 06:42:13;;;;;;;10.40;6.03;;;18.90;70.80;;;;;;4936604;29;20380;-78
2021/06/02 06:44:40;;;;;;;13.00;5.63;;;19.00;70.70;;;;;;4954530;29;20071;-78
2021/06/02 06:47:13;;;;;;;11.02;6.03;;;19.00;70.80;;;;;;4953823;29;20037;-78
2021/06/02 06:49:40;;;;;;;9.75;5.65;;;19.00;70.70;;;;;;4937747;29;20027;-78
2021/06/02 06:52:06;;;;;;;13.48;5.72;;;19.00;70.40;;;;;;4936873;29;20034;-77
2021/06/02 06:54:32;;;;;;;9.85;5.30;;;19.10;70.30;;;;;;4937394;29;20109;-78
2021/06/02 06:56:59;;;;;;;11.25;6.03;;;19.10;69.90;;;;;;4937088;29;20352;-79
2021/06/02 06:59:26;;;;;;;10.38;5.22;;;19.20;69.80;;;;;;4953282;29;20126;-77
2021/06/02 07:01:51;;;;;;;8.55;5.15;;;19.20;69.90;;;;;;4937017;29;20027;-78
2021/06/02 07:04:18;;;;;;;8.35;4.80;;;19.30;70.00;;;;;;4953675;29;20063;-77
2021/06/02 07:06:44;;;;;;;10.38;4.68;;;19.30;70.20;;;;;;4954224;29;20070;-78
2021/06/02 07:09:10;;;;;;;11.05;5.78;;;19.30;70.30;;;;;;4953466;28;20023;-78
2021/06/02 07:11:37;;;;;;;11.20;4.95;;;19.30;70.00;;;;;;4953609;29;20066;-78
2021/06/02 07:14:04;;;;;;;8.77;4.93;;;19.40;70.00;;;;;;4936213;29;20420;-78
2021/06/02 07:16:31;;;;;;;11.35;5.80;;;19.40;69.90;;;;;;4936710;29;20019;-78
2021/06/02 07:18:59;;;;;;;8.25;4.95;;;19.40;69.60;;;;;;4954065;29;20051;-78
2021/06/02 07:21:25;;;;;;;9.40;4.68;;;19.50;69.80;;;;;;4936117;29;20065;-77
2021/06/02 07:23:51;;;;;;;9.55;5.68;;;19.50;70.00;;;;;;4936801;29;20059;-78
2021/06/02 07:26:18;;;;;;;10.75;5.63;;;19.50;69.40;;;;;;4953362;29;20027;-77
2021/06/02 07:28:44;;;;;;;9.55;4.72;;;19.60;69.50;;;;;;4958521;28;20050;-77
2021/06/02 07:31:10;;;;;;;11.73;5.40;;;19.60;69.40;;;;;;4955103;28;20035;-77
2021/06/02 07:33:37;;;;;;;8.93;5.60;;;19.60;69.00;;;;;;4955712;28;20146;-77
2021/06/02 07:36:04;;;;;;;9.40;4.72;;;19.70;68.90;;;;;;4972946;28;20033;-77
2021/06/02 07:38:30;;;;;;;10.20;5.72;;;19.70;68.60;;;;;;4973160;28;20102;-77
2021/06/02 07:40:56;;;;;;;12.63;5.63;;;19.80;68.70;;;;;;4972919;28;20110;-78
2021/06/02 07:43:22;;;;;;;9.00;4.78;;;19.80;68.70;;;;;;4955114;28;20030;-78
2021/06/02 07:45:48;;;;;;;10.23;5.50;;;19.80;68.80;;;;;;4972909;28;20435;-79
2021/06/02 07:48:13;;;;;;;10.48;5.68;;;19.80;68.70;;;;;;4955315;28;20038;-78
2021/06/02 07:50:40;;;;;;;10.45;5.60;;;19.90;68.70;;;;;;4973142;28;20035;-78
2021/06/02 07:53:05;;;;;;;9.93;5.25;;;19.90;68.40;;;;;;4972488;28;20018;-79
2021/06/02 07:55:31;;;;;;;9.18;5.38;;;19.90;68.40;;;;;;4973018;28;20030;-78
2021/06/02 07:57:57;;;;;;;8.05;4.82;;;20.00;68.30;;;;;;4955652;28;20375;-78
2021/06/02 08:00:24;;;;;;;12.00;5.65;;;20.00;68.10;;;;;;4954775;28;20114;-78
2021/06/02 08:02:49;;;;;;;14.70;6.40;;;20.10;67.80;;;;;;4973002;28;20027;-77
2021/06/02 08:05:15;;;;;;;12.80;4.85;;;20.20;67.60;;;;;;4954902;28;20027;-78
2021/06/02 08:07:46;;;;;;;11.90;5.53;;;20.20;67.60;;;;;;4972868;28;20015;-78
2021/06/02 08:10:13;;;;;;;;;;;20.20;67.50;;;;;;4972429;28;20039;-77
2021/06/02 08:12:39;;;;;;;10.90;5.25;;;20.20;67.30;;;;;;4972493;28;19910;-78
2021/06/02 08:15:08;;;;;;;11.82;5.75;;;20.30;67.30;;;;;;4955392;28;20050;-77
2021/06/02 08:17:35;;;;;;;9.98;5.25;;;20.30;67.20;;;;;;4955347;28;20030;-79
2021/06/02 08:20:00;;;;;;;11.20;5.43;;;20.40;67.30;;;;;;4955374;28;20114;-78
2021/06/02 08:22:26;;;;;;;9.68;5.10;;;20.40;67.20;;;;;;4973666;28;20050;-78
2021/06/02 08:24:52;;;;;;;9.15;5.20;;;20.40;67.10;;;;;;4959025;28;20531;-77
2021/06/02 08:27:17;;;;;;;48.67;10.00;;;20.50;67.00;;;;;;4975797;28;20023;-78
2021/06/02 08:29:44;;;;;;;19.77;6.90;;;20.50;66.80;;;;;;4958665;28;20055;-78
2021/06/02 08:32:10;;;;;;;9.88;5.30;;;20.60;66.80;;;;;;4974498;28;20047;-78
2021/06/02 08:34:36;;;;;;;11.38;5.45;;;20.60;66.80;;;;;;4958789;28;20037;-77
2021/06/02 08:37:06;;;;;;;9.15;4.88;;;20.70;66.70;;;;;;4960021;28;20022;-78
2021/06/02 08:39:33;;;;;;;9.20;4.95;;;20.70;66.40;;;;;;4976325;28;20029;-78
2021/06/02 08:41:58;;;;;;;10.98;5.90;;;20.80;65.80;;;;;;4976537;28;20109;-78
2021/06/02 08:44:24;;;;;;;10.38;4.90;;;20.90;65.70;;;;;;4976236;28;20027;-78
2021/06/02 08:46:50;;;;;;;9.25;5.15;;;20.90;65.50;;;;;;4975604;28;20022;-77
2021/06/02 08:49:18;;;;;;;7.55;4.80;;;21.00;65.20;;;;;;4975221;28;20041;-76
2021/06/02 08:51:45;;;;;;;10.23;4.97;;;21.00;64.90;;;;;;4958291;28;20030;-78
2021/06/02 08:54:10;;;;;;;11.00;4.80;;;21.10;65.30;;;;;;4957552;28;20038;-78
2021/06/02 08:56:41;;;;;;;9.63;4.05;;;21.10;64.40;;;;;;4975904;28;20031;-78
2021/06/02 08:59:07;;;;;;;7.80;4.40;;;21.10;64.10;;;;;;4975725;28;20027;-79
2021/06/02 09:01:34;;;;;;;7.43;4.43;;;21.20;64.00;;;;;;4975090;28;20030;-78
2021/06/02 09:04:04;;;;;;;11.60;4.85;;;21.30;62.30;;;;;;4957864;28;20391;-78
2021/06/02 09:06:31;;;;;;;9.47;4.47;;;21.40;62.00;;;;;;4957435;28;20023;-78
2021/06/02 09:08:57;;;;;;;6.05;3.08;;;21.50;61.80;;;;;;4975708;28;20027;-78
2021/06/02 09:11:23;;;;;;;8.68;4.90;;;21.50;61.70;;;;;;4974914;28;20031;-78
2021/06/02 09:13:49;;;;;;;6.80;4.13;;;21.50;61.60;;;;;;4975452;28;20026;-78
2021/06/02 09:16:30;;;;;;;7.72;4.32;;;21.60;61.30;;;;;;4957724;28;20023;-78
2021/06/02 09:19:03;;;;;;;7.65;4.50;;;21.70;61.30;;;;;;4958526;28;20042;-79
2021/06/02 09:21:30;;;;;;;8.85;4.78;;;21.70;60.60;;;;;;4958247;28;20375;-78
2021/06/02 09:23:57;;;;;;;22.80;10.75;;;21.80;60.40;;;;;;4958425;28;20086;-79
2021/06/02 09:26:25;;;;;;;10.98;4.75;;;21.90;60.20;;;;;;4958128;28;20109;-77
2021/06/02 09:28:54;;;;;;;8.35;4.40;;;22.00;59.80;;;;;;4976895;28;20033;-78
2021/06/02 09:31:26;;;;;;;9.25;4.00;;;22.10;59.70;;;;;;4965373;28;20023;-77
2021/06/02 09:34:17;;;;;;;7.95;3.92;;;22.20;59.60;;;;;;4960934;28;20026;-78
2021/06/02 09:36:49;;;;;;;6.47;3.30;;;22.20;59.20;;;;;;4957945;28;20027;-78
2021/06/02 09:39:21;;;;;;;21.10;4.35;;;22.20;59.10;;;;;;4957243;28;20034;-77
2021/06/02 09:41:51;;;;;;;7.18;3.60;;;22.20;58.80;;;;;;4957842;28;20074;-78
2021/06/02 09:44:20;;;;;;;6.67;3.70;;;22.20;58.10;;;;;;4957139;28;20042;-79
2021/06/02 09:46:59;;;;;;;8.48;3.22;;;22.20;57.80;;;;;;4957811;28;20034;-77
2021/06/02 09:49:25;;;;;;;6.45;3.00;;;22.30;57.40;;;;;;4974255;28;20475;-78
2021/06/02 09:51:52;;;;;;;6.45;3.28;;;22.30;57.40;;;;;;4974951;28;20038;-78
2021/06/02 09:54:22;;;;;;;7.85;3.08;;;22.40;57.20;;;;;;4956797;28;20033;-78
2021/06/02 09:56:50;;;;;;;9.27;3.27;;;22.50;57.00;;;;;;4957991;28;20472;-78
2021/06/02 09:59:18;;;;;;;7.75;3.47;;;22.50;56.80;;;;;;4975136;28;20642;-78
2021/06/02 10:01:57;;;;;;;8.38;3.03;;;22.60;56.60;;;;;;4957163;28;20498;-79
2021/06/02 10:04:39;;;;;;;5.30;2.75;;;22.70;56.50;;;;;;4956630;28;20501;-79
2021/06/02 10:07:20;;;;;;;5.03;2.70;;;22.80;56.00;;;;;;4957117;28;20397;-78
2021/06/02 10:09:47;;;;;;;4.70;2.80;;;22.90;55.80;;;;;;4974965;28;20030;-78
2021/06/02 10:12:13;;;;;;;4.82;2.40;;;22.90;55.60;;;;;;4974468;28;20030;-78
2021/06/02 10:14:40;;;;;;;6.28;2.92;;;23.00;55.50;;;;;;4956495;28;20033;-78
2021/06/02 10:17:27;;;;;;;7.45;2.72;;;23.10;54.60;;;;;;4974270;28;20034;-77
2021/06/02 10:19:54;;;;;;;4.97;2.78;;;23.20;54.40;;;;;;4956919;28;20031;-78
2021/06/02 10:22:27;;;;;;;4.20;2.45;;;23.10;54.10;;;;;;4973680;28;20027;-79
2021/06/02 10:24:59;;;;;;;6.32;2.45;;;23.20;54.00;;;;;;4956994;28;20026;-78
2021/06/02 10:27:26;;;;;;;4.95;2.50;;;23.20;54.00;;;;;;4956365;28;20015;-78
2021/06/02 10:29:52;;;;;;;6.05;2.40;;;23.20;53.60;;;;;;4946728;29;20126;-79
2021/06/02 10:32:19;;;;;;;5.03;2.80;;;23.30;53.10;;;;;;4954091;29;20023;-78
2021/06/02 10:34:46;;;;;;;4.50;2.10;;;23.30;52.50;;;;;;4937642;29;20078;-77
2021/06/02 10:37:14;;;;;;;4.07;2.13;;;23.30;51.90;;;;;;4937239;29;20440;-78
2021/06/02 10:39:44;;;;;;;3.58;2.15;;;23.40;51.20;;;;;;4953975;29;20034;-78
2021/06/02 10:42:19;;;;;;;3.72;2.17;;;23.50;50.20;;;;;;4954262;29;20431;-77
2021/06/02 10:44:50;;;;;;;2.28;1.73;;;23.60;50.00;;;;;;4954133;28;20019;-77
2021/06/02 10:47:25;;;;;;;3.85;2.50;;;23.60;50.00;;;;;;4954662;29;20030;-77
2021/06/02 10:49:51;;;;;;;5.53;2.95;;;23.60;49.80;;;;;;4937125;29;20027;-78
2021/06/02 10:52:43;;;;;;;5.88;2.85;;;23.70;49.70;;;;;;4954439;29;20078;-78
2021/06/02 10:55:37;;;;;;;3.53;1.92;;;23.80;49.60;;;;;;4936002;29;20142;-77
2021/06/02 10:58:22;;;;;;;2.60;1.73;;;23.80;49.20;;;;;;4954738;29;20111;-77
2021/06/02 11:00:53;;;;;;;3.88;1.67;;;23.80;48.70;;;;;;4937233;29;20027;-79
2021/06/02 11:03:25;;;;;;;2.95;2.00;;;24.00;48.60;;;;;;4953751;29;20027;-78
2021/06/02 11:06:16;;;;;;;3.28;1.77;;;24.10;47.90;;;;;;4954270;29;20024;-79
2021/06/02 11:08:48;;;;;;;3.35;2.08;;;24.20;48.00;;;;;;4935937;29;20053;-78
2021/06/02 11:11:30;;;;;;;4.68;2.33;;;24.40;47.50;;;;;;4936924;29;20035;-78
2021/06/02 11:14:17;;;;;;;4.43;2.33;;;24.50;47.10;;;;;;4954782;29;20506;-78
2021/06/02 11:16:56;;;;;;;5.47;2.03;;;24.60;46.30;;;;;;4936561;29;20376;-78
2021/06/02 11:19:26;;;;;;;4.43;2.47;;;24.80;46.30;;;;;;4936412;29;20401;-78
2021/06/02 11:21:55;;;;;;;2.88;1.98;;;25.00;46.00;;;;;;4936992;29;20039;-78
2021/06/02 11:24:32;;;;;;;3.10;1.95;;;25.20;46.10;;;;;;4953459;29;20023;-78
2021/06/02 11:27:19;;;;;;;3.53;1.80;;;25.40;45.30;;;;;;4954005;29;20110;-78
2021/06/02 11:29:51;;;;;;;3.15;1.98;;;25.60;44.90;;;;;;4944304;28;20054;-79
2021/06/02 11:32:24;;;;;;;3.97;1.90;;;25.80;44.20;;;;;;4973458;28;20479;-78
2021/06/02 11:34:57;;;;;;;2.67;1.80;;;26.00;44.00;;;;;;4973361;28;20037;-78
2021/06/02 11:37:28;;;;;;;3.30;1.80;;;26.20;43.30;;;;;;4972396;28;20057;-79
2021/06/02 11:40:05;;;;;;;2.80;1.60;;;26.40;43.10;;;;;;4973451;28;20455;-78
2021/06/02 11:42:38;;;;;;;2.42;1.77;;;26.50;43.10;;;;;;4955182;28;20118;-79
2021/06/02 11:45:06;;;;;;;2.13;1.42;;;26.70;42.70;;;;;;4973211;28;20572;-79
2021/06/02 11:47:33;;;;;;;2.10;1.42;;;26.90;41.70;;;;;;4955285;28;20146;-78
2021/06/02 11:50:17;;;;;;;4.53;1.65;;;27.10;41.10;;;;;;4955351;28;20106;-79
2021/06/02 11:52:44;;;;;;;3.88;2.08;;;27.30;41.30;;;;;;4972454;28;20030;-78
2021/06/02 11:55:14;;;;;;;4.57;1.95;;;27.40;41.10;;;;;;4955887;28;20033;-78
2021/06/02 11:57:42;;;;;;;2.97;1.83;;;27.50;40.50;;;;;;4974688;28;20026;-79
2021/06/02 12:00:11;;;;;;;3.65;1.63;;;27.70;40.20;;;;;;4959575;28;20464;-79
2021/06/02 12:02:37;;;;;;;3.92;1.67;;;27.70;40.00;;;;;;4958773;28;20033;-78
2021/06/02 12:05:25;;;;;;;2.92;1.83;;;27.90;40.20;;;;;;4959516;28;20090;-79
2021/06/02 12:08:01;;;;;;;3.42;1.83;;;28.00;39.40;;;;;;4959555;28;20027;-78
2021/06/02 12:10:35;;;;;;;5.53;1.65;;;28.20;38.50;;;;;;4958559;28;20026;-77
2021/06/02 12:13:04;;;;;;;2.95;1.80;;;28.30;38.50;;;;;;4959600;28;20034;-79
2021/06/02 12:15:52;;;;;;;2.95;1.67;;;28.40;38.60;;;;;;4958753;28;20069;-79
2021/06/02 12:18:46;;;;;;;2.03;1.52;;;28.50;38.40;;;;;;4977152;28;20031;-79
2021/06/02 12:21:27;;;;;;;2.75;1.60;;;28.70;38.00;;;;;;4979480;28;20035;-78
2021/06/02 12:23:54;;;;;;;;;;;28.80;38.20;;;;;;4970948;28;20023;-78
2021/06/02 12:26:32;;;;;;;4.03;2.15;;;28.90;37.90;;;;;;4983559;28;19906;-78
2021/06/02 12:29:02;;;;;;;2.97;1.80;;;29.00;37.60;;;;;;4979352;28;20038;-78
2021/06/02 12:31:56;;;;;;;3.95;1.70;;;29.10;37.60;;;;;;4976460;28;20055;-79
2021/06/02 12:34:33;;;;;;;2.72;1.85;;;29.20;37.80;;;;;;4959460;28;20147;-79
2021/06/02 12:37:01;;;;;;;2.88;1.77;;;29.40;37.70;;;;;;4959882;28;20019;-79
2021/06/02 12:39:29;;;;;;;3.45;1.85;;;29.50;37.40;;;;;;4976546;28;20022;-79
2021/06/02 12:41:56;;;;;;;3.42;1.92;;;29.60;36.90;;;;;;4959232;28;20073;-78
2021/06/02 12:44:24;;;;;;;4.50;1.80;;;29.60;36.20;;;;;;4959003;28;20122;-80
2021/06/02 12:47:02;;;;;;;2.65;1.55;;;29.70;36.30;;;;;;4976658;28;20019;-78
2021/06/02 12:49:29;;;;;;;2.45;1.77;;;29.80;36.70;;;;;;4977114;28;20027;-78
2021/06/02 12:51:56;;;;;;;3.03;1.77;;;29.90;36.90;;;;;;4976211;28;20026;-79
2021/06/02 12:54:31;;;;;;;3.35;1.60;;;30.00;36.80;;;;;;4976199;28;20027;-79
2021/06/02 12:57:00;;;;;;;3.55;1.80;;;30.10;37.00;;;;;;4975802;28;20379;-79
2021/06/02 12:59:31;;;;;;;4.63;1.75;;;30.10;36.80;;;;;;4975636;28;20106;-79
2021/06/02 13:02:02;;;;;;;3.00;1.80;;;30.20;37.00;;;;;;4975985;28;20038;-79
2021/06/02 13:04:28;;;;;;;3.15;1.98;;;30.30;36.80;;;;;;4975423;28;20019;-79
2021/06/02 13:06:55;;;;;;;2.55;1.60;;;30.30;36.60;;;;;;4958777;28;20022;-79
2021/06/02 13:09:23;;;;;;;2.78;1.55;;;30.30;36.50;;;;;;4974994;28;20427;-79
2021/06/02 13:11:54;;;;;;;2.53;1.70;;;30.40;36.60;;;;;;4957610;28;20077;-79
2021/06/02 13:14:30;;;;;;;2.92;1.77;;;30.50;36.30;;;;;;4975955;28;20162;-79
2021/06/02 13:16:56;;;;;;;2.90;1.88;;;30.60;36.10;;;;;;4975307;28;20023;-79
2021/06/02 13:19:35;;;;;;;2.90;1.75;;;30.60;36.00;;;;;;4958042;28;20022;-79
2021/06/02 13:22:00;;;;;;;3.38;1.92;;;30.70;36.20;;;;;;4975362;28;20022;-78
2021/06/02 13:24:36;;;;;;;3.75;2.05;;;30.80;36.90;;;;;;4957984;28;20535;-79
2021/06/02 13:27:02;;;;;;;5.47;2.25;;;30.90;36.40;;;;;;4975689;28;20018;-78